createdAt,value
2019-01-13T00:00:03.713Z,6.84
2019-01-13T00:01:03.803Z,6.86
2019-01-13T00:02:03.894Z,6.81
2019-01-13T00:03:03.980Z,6.77
2019-01-13T00:04:04.070Z,6.83
2019-01-13T00:05:04.156Z,6.81
2019-01-13T00:06:04.245Z,6.84
2019-01-13T00:07:04.333Z,6.81
2019-01-13T00:08:04.424Z,6.86
2019-01-13T00:09:04.510Z,6.80
2019-01-13T00:10:04.604Z,6.80
2019-01-13T00:11:04.686Z,6.72
2019-01-13T00:12:04.777Z,6.81
2019-01-13T00:13:04.863Z,6.69
2019-01-13T00:14:04.952Z,6.79
2019-01-13T00:15:05.052Z,6.84
2019-01-13T00:16:05.129Z,6.81
2019-01-13T00:17:05.220Z,6.81
2019-01-13T00:18:05.306Z,6.79
2019-01-13T00:19:05.401Z,6.66
2019-01-13T00:20:05.489Z,6.84
2019-01-13T00:21:05.579Z,6.81
2019-01-13T00:22:05.667Z,6.79
2019-01-13T00:23:05.758Z,6.77
2019-01-13T00:24:05.850Z,6.68
2019-01-13T00:25:05.939Z,6.84
2019-01-13T00:26:06.026Z,6.84
2019-01-13T00:27:06.126Z,6.83
2019-01-13T00:28:06.201Z,6.83
2019-01-13T00:29:06.287Z,6.81
2019-01-13T00:30:06.379Z,6.87
2019-01-13T00:31:06.469Z,6.83
2019-01-13T00:32:06.561Z,6.79
2019-01-13T00:33:06.643Z,6.79
2019-01-13T00:34:06.736Z,6.83
2019-01-13T00:35:06.828Z,6.77
2019-01-13T00:36:06.915Z,6.94
2019-01-13T00:37:07.008Z,6.87
2019-01-13T00:38:07.097Z,6.84
2019-01-13T00:39:07.184Z,6.83
2019-01-13T00:40:07.271Z,6.83
2019-01-13T00:41:07.360Z,6.80
2019-01-13T00:42:07.449Z,6.83
2019-01-13T00:43:07.540Z,6.80
2019-01-13T00:44:07.625Z,6.80
2019-01-13T00:45:07.717Z,6.72
2019-01-13T00:46:07.807Z,6.76
2019-01-13T00:47:07.898Z,6.81
2019-01-13T00:48:07.987Z,6.68
2019-01-13T00:49:08.074Z,6.77
2019-01-13T00:50:08.165Z,6.69
2019-01-13T00:51:08.254Z,6.76
2019-01-13T00:52:08.340Z,6.72
2019-01-13T00:53:08.430Z,6.68
2019-01-13T00:54:08.516Z,6.71
2019-01-13T00:55:08.605Z,6.81
2019-01-13T00:56:08.691Z,6.69
2019-01-13T00:57:08.780Z,6.71
2019-01-13T00:58:08.868Z,6.76
2019-01-13T00:59:08.956Z,6.80
2019-01-13T01:00:09.047Z,6.69
2019-01-13T01:01:09.130Z,6.76
2019-01-13T01:02:09.224Z,6.73
2019-01-13T01:03:09.304Z,6.73
2019-01-13T01:04:09.391Z,6.79
2019-01-13T01:05:09.482Z,6.76
2019-01-13T01:06:09.565Z,6.80
2019-01-13T01:07:09.659Z,6.72
2019-01-13T01:08:09.757Z,6.66
2019-01-13T01:09:09.837Z,6.61
2019-01-13T01:10:09.923Z,6.68
2019-01-13T01:11:10.015Z,6.61
2019-01-13T01:12:10.099Z,6.53
2019-01-13T01:13:10.185Z,6.47
2019-01-13T01:14:10.274Z,6.38
2019-01-13T01:15:10.365Z,6.50
2019-01-13T01:16:10.456Z,6.41
2019-01-13T01:17:10.538Z,6.41
2019-01-13T01:18:10.632Z,6.29
2019-01-13T01:19:10.720Z,6.32
2019-01-13T01:20:10.807Z,6.10
2019-01-13T01:21:10.896Z,6.19
2019-01-13T01:22:10.984Z,6.22
2019-01-13T01:23:11.073Z,6.18
2019-01-13T01:24:11.167Z,6.14
2019-01-13T01:25:11.255Z,6.09
2019-01-13T01:26:11.344Z,6.16
2019-01-13T01:27:11.431Z,6.28
2019-01-13T01:28:11.521Z,6.26
2019-01-13T01:29:11.613Z,6.30
2019-01-13T01:30:11.704Z,6.14
2019-01-13T01:31:11.789Z,6.14
2019-01-13T01:32:11.874Z,6.28
2019-01-13T01:33:11.964Z,6.21
2019-01-13T01:34:12.055Z,6.19
2019-01-13T01:35:12.140Z,6.21
2019-01-13T01:36:12.229Z,6.18
2019-01-13T01:37:12.317Z,6.14
2019-01-13T01:38:12.411Z,6.22
2019-01-13T01:39:12.495Z,6.21
2019-01-13T01:40:12.581Z,6.28
2019-01-13T01:41:12.672Z,6.30
2019-01-13T01:42:12.761Z,6.26
2019-01-13T01:43:12.854Z,6.32
2019-01-13T01:44:12.942Z,6.21
2019-01-13T01:45:13.030Z,6.11
2019-01-13T01:46:13.143Z,6.26
2019-01-13T01:47:13.221Z,6.30
2019-01-13T01:48:13.301Z,6.32
2019-01-13T01:49:13.406Z,6.30
2019-01-13T01:50:13.501Z,6.35
2019-01-13T01:51:13.589Z,6.22
2019-01-13T01:52:13.717Z,6.29
2019-01-13T01:53:13.805Z,6.29
2019-01-13T01:54:13.895Z,6.26
2019-01-13T01:55:13.984Z,6.28
2019-01-13T01:56:14.073Z,6.35
2019-01-13T01:57:14.160Z,6.30
2019-01-13T01:58:14.249Z,6.43
2019-01-13T01:59:14.339Z,6.38
2019-01-13T02:00:14.427Z,6.47
2019-01-13T02:01:14.513Z,6.44
2019-01-13T02:02:14.601Z,6.38
2019-01-13T02:03:14.710Z,6.43
2019-01-13T02:04:14.796Z,6.38
2019-01-13T02:05:14.874Z,6.41
2019-01-13T02:06:14.962Z,6.30
2019-01-13T02:07:15.051Z,6.26
2019-01-13T02:08:15.145Z,6.28
2019-01-13T02:09:15.238Z,6.28
2019-01-13T02:10:15.326Z,6.14
2019-01-13T02:11:15.416Z,6.22
2019-01-13T02:12:15.505Z,6.21
2019-01-13T02:13:15.591Z,6.01
2019-01-13T02:14:15.681Z,6.04
2019-01-13T02:15:15.769Z,6.04
2019-01-13T02:16:15.853Z,6.09
2019-01-13T02:17:15.943Z,6.00
2019-01-13T02:18:16.029Z,6.06
2019-01-13T02:19:16.119Z,6.18
2019-01-13T02:20:16.206Z,6.14
2019-01-13T02:21:16.291Z,6.13
2019-01-13T02:22:16.385Z,6.14
2019-01-13T02:23:16.475Z,6.22
2019-01-13T02:24:16.566Z,6.21
2019-01-13T02:25:16.658Z,6.11
2019-01-13T02:26:16.746Z,6.07
2019-01-13T02:27:16.837Z,6.06
2019-01-13T02:28:16.935Z,6.14
2019-01-13T02:29:17.009Z,6.14
2019-01-13T02:30:17.100Z,6.13
2019-01-13T02:31:17.194Z,6.18
2019-01-13T02:32:17.279Z,6.11
2019-01-13T02:33:17.386Z,6.09
2019-01-13T02:34:17.475Z,6.13
2019-01-13T02:35:17.565Z,6.26
2019-01-13T02:36:17.652Z,6.30
2019-01-13T02:37:17.743Z,6.26
2019-01-13T02:38:17.839Z,6.29
2019-01-13T02:39:17.924Z,6.33
2019-01-13T02:40:18.012Z,6.40
2019-01-13T02:41:18.097Z,6.41
2019-01-13T02:42:18.185Z,6.29
2019-01-13T02:43:18.275Z,6.32
2019-01-13T02:44:18.366Z,6.32
2019-01-13T02:45:18.455Z,6.38
2019-01-13T02:46:18.538Z,6.30
2019-01-13T02:47:18.629Z,6.16
2019-01-13T02:48:18.712Z,6.30
2019-01-13T02:49:18.802Z,6.30
2019-01-13T02:50:18.896Z,6.43
2019-01-13T02:51:18.988Z,6.44
2019-01-13T02:52:19.067Z,6.48
2019-01-13T02:53:19.160Z,6.47
2019-01-13T02:54:19.249Z,6.48
2019-01-13T02:55:19.338Z,6.68
2019-01-13T02:56:19.426Z,6.59
2019-01-13T02:57:19.515Z,6.62
2019-01-13T02:58:19.609Z,6.66
2019-01-13T02:59:19.690Z,6.71
2019-01-13T03:00:19.782Z,6.66
2019-01-13T03:01:19.875Z,6.73
2019-01-13T03:02:19.961Z,6.66
2019-01-13T03:03:20.045Z,6.76
2019-01-13T03:04:20.152Z,6.79
2019-01-13T03:05:20.231Z,6.62
2019-01-13T03:06:20.314Z,6.73
2019-01-13T03:07:20.404Z,6.72
2019-01-13T03:08:20.492Z,6.72
2019-01-13T03:09:20.582Z,6.63
2019-01-13T03:10:20.672Z,6.72
2019-01-13T03:11:20.758Z,6.69
2019-01-13T03:12:20.851Z,6.76
2019-01-13T03:13:20.941Z,6.66
2019-01-13T03:14:21.028Z,6.77
2019-01-13T03:15:21.116Z,6.72
2019-01-13T03:16:21.202Z,6.68
2019-01-13T03:17:21.284Z,6.79
2019-01-13T03:18:21.382Z,6.79
2019-01-13T03:19:21.483Z,6.77
2019-01-13T03:20:21.564Z,6.76
2019-01-13T03:21:21.653Z,6.71
2019-01-13T03:22:21.749Z,6.63
2019-01-13T03:23:21.831Z,6.66
2019-01-13T03:24:21.922Z,6.63
2019-01-13T03:25:22.009Z,6.65
2019-01-13T03:26:22.096Z,6.58
2019-01-13T03:27:22.197Z,6.65
2019-01-13T03:28:22.274Z,6.48
2019-01-13T03:29:22.376Z,6.53
2019-01-13T03:30:22.591Z,6.47
2019-01-13T03:31:22.567Z,6.51
2019-01-13T03:32:22.647Z,6.40
2019-01-13T03:33:22.738Z,6.30
2019-01-13T03:34:22.825Z,6.35
2019-01-13T03:35:22.917Z,6.41
2019-01-13T03:36:23.003Z,6.38
2019-01-13T03:37:23.089Z,6.30
2019-01-13T03:38:23.177Z,6.40
2019-01-13T03:39:23.270Z,6.35
2019-01-13T03:40:23.355Z,6.32
2019-01-13T03:41:23.441Z,6.32
2019-01-13T03:42:23.525Z,6.32
2019-01-13T03:43:23.613Z,6.29
2019-01-13T03:44:23.697Z,6.28
2019-01-13T03:45:23.788Z,6.28
2019-01-13T03:46:23.875Z,6.29
2019-01-13T03:47:23.966Z,6.26
2019-01-13T03:48:24.052Z,6.29
2019-01-13T03:49:24.137Z,6.22
2019-01-13T03:50:24.224Z,6.32
2019-01-13T03:51:24.313Z,6.30
2019-01-13T03:52:24.400Z,6.38
2019-01-13T03:53:24.512Z,6.36
2019-01-13T03:54:24.582Z,6.29
2019-01-13T03:55:24.668Z,6.26
2019-01-13T03:56:24.756Z,6.30
2019-01-13T03:57:24.847Z,6.35
2019-01-13T03:58:24.936Z,6.47
2019-01-13T03:59:25.024Z,6.33
2019-01-13T04:00:25.129Z,6.46
2019-01-13T04:01:25.217Z,6.43
2019-01-13T04:02:25.306Z,6.46
2019-01-13T04:03:25.392Z,6.47
2019-01-13T04:04:25.480Z,6.32
2019-01-13T04:05:25.573Z,6.30
2019-01-13T04:06:25.660Z,6.35
2019-01-13T04:07:25.750Z,6.32
2019-01-13T04:08:25.839Z,6.38
2019-01-13T04:09:25.919Z,6.30
2019-01-13T04:10:26.019Z,6.33
2019-01-13T04:11:26.108Z,6.26
2019-01-13T04:12:26.202Z,6.33
2019-01-13T04:13:26.284Z,6.32
2019-01-13T04:14:26.372Z,6.18
2019-01-13T04:15:26.460Z,6.18
2019-01-13T04:16:26.548Z,6.30
2019-01-13T04:17:26.638Z,6.36
2019-01-13T04:18:26.726Z,6.41
2019-01-13T04:19:26.817Z,6.40
2019-01-13T04:20:26.904Z,6.46
2019-01-13T04:21:26.995Z,6.41
2019-01-13T04:22:27.081Z,6.40
2019-01-13T04:23:27.173Z,6.56
2019-01-13T04:24:27.262Z,6.50
2019-01-13T04:25:27.423Z,6.61
2019-01-13T04:26:27.443Z,6.65
2019-01-13T04:27:27.526Z,6.63
2019-01-13T04:28:27.615Z,6.56
2019-01-13T04:29:27.704Z,6.63
2019-01-13T04:30:27.793Z,6.62
2019-01-13T04:31:27.893Z,6.62
2019-01-13T04:32:27.988Z,6.61
2019-01-13T04:33:28.069Z,6.66
2019-01-13T04:34:28.166Z,6.68
2019-01-13T04:35:28.249Z,6.65
2019-01-13T04:36:28.337Z,6.59
2019-01-13T04:37:28.428Z,6.63
2019-01-13T04:38:28.515Z,6.65
2019-01-13T04:39:28.602Z,6.62
2019-01-13T04:40:28.696Z,6.63
2019-01-13T04:41:28.777Z,6.66
2019-01-13T04:42:28.868Z,6.63
2019-01-13T04:43:28.957Z,6.69
2019-01-13T04:44:29.045Z,6.79
2019-01-13T04:45:29.133Z,6.73
2019-01-13T04:46:29.225Z,6.71
2019-01-13T04:47:29.314Z,6.71
2019-01-13T04:48:29.403Z,6.77
2019-01-13T04:49:29.494Z,6.73
2019-01-13T04:50:29.581Z,6.79
2019-01-13T04:51:29.666Z,6.76
2019-01-13T04:52:29.753Z,6.83
2019-01-13T04:53:29.844Z,6.87
2019-01-13T04:54:29.930Z,6.86
2019-01-13T04:55:30.022Z,6.81
2019-01-13T04:56:30.110Z,6.80
2019-01-13T04:57:30.196Z,6.79
2019-01-13T04:58:30.287Z,6.84
2019-01-13T04:59:30.374Z,6.83
2019-01-13T05:00:30.464Z,6.77
2019-01-13T05:01:34.908Z,6.81
2019-01-13T05:02:30.646Z,6.77
2019-01-13T05:03:30.737Z,6.79
2019-01-13T05:04:30.824Z,6.76
2019-01-13T05:05:30.913Z,6.81
2019-01-13T05:06:31.001Z,6.73
2019-01-13T05:07:31.092Z,6.77
2019-01-13T05:08:31.177Z,6.72
2019-01-13T05:09:31.265Z,6.80
2019-01-13T05:10:31.355Z,6.72
2019-01-13T05:11:31.444Z,6.68
2019-01-13T05:12:31.537Z,6.79
2019-01-13T05:13:31.625Z,6.80
2019-01-13T05:14:31.714Z,6.72
2019-01-13T05:15:31.798Z,6.68
2019-01-13T05:16:31.888Z,6.71
2019-01-13T05:17:33.672Z,6.71
2019-01-13T05:18:32.064Z,6.65
2019-01-13T05:19:32.163Z,6.65
2019-01-13T05:20:32.247Z,6.62
2019-01-13T05:21:32.337Z,6.62
2019-01-13T05:22:32.429Z,6.61
2019-01-13T05:23:32.517Z,6.65
2019-01-13T05:24:32.602Z,6.71
2019-01-13T05:25:32.690Z,6.63
2019-01-13T05:26:32.779Z,6.65
2019-01-13T05:27:32.890Z,6.65
2019-01-13T05:28:32.979Z,6.63
2019-01-13T05:29:33.069Z,6.69
2019-01-13T05:30:33.160Z,6.76
2019-01-13T05:31:33.249Z,6.77
2019-01-13T05:32:33.337Z,6.76
2019-01-13T05:33:33.424Z,6.77
2019-01-13T05:34:33.515Z,6.84
2019-01-13T05:35:33.602Z,6.80
2019-01-13T05:36:33.692Z,6.83
2019-01-13T05:37:33.779Z,6.73
2019-01-13T05:38:33.870Z,6.80
2019-01-13T05:39:33.959Z,6.79
2019-01-13T05:40:34.061Z,6.87
2019-01-13T05:41:34.143Z,6.90
2019-01-13T05:42:34.231Z,6.89
2019-01-13T05:43:34.327Z,6.89
2019-01-13T05:44:34.408Z,6.91
2019-01-13T05:45:34.498Z,6.77
2019-01-13T05:46:34.578Z,6.83
2019-01-13T05:47:34.667Z,6.79
2019-01-13T05:48:34.756Z,6.76
2019-01-13T05:49:34.842Z,6.83
2019-01-13T05:50:34.932Z,6.79
2019-01-13T05:51:35.020Z,6.86
2019-01-13T05:52:35.107Z,6.90
2019-01-13T05:53:35.196Z,6.87
2019-01-13T05:54:35.288Z,6.79
2019-01-13T05:55:35.376Z,6.91
2019-01-13T05:56:35.464Z,6.98
2019-01-13T05:57:35.556Z,7.04
2019-01-13T05:58:35.643Z,7.04
2019-01-13T05:59:35.738Z,7.04
2019-01-13T06:00:35.824Z,7.09
2019-01-13T06:01:35.917Z,7.16
2019-01-13T06:02:36.049Z,7.02
2019-01-13T06:03:36.085Z,7.04
2019-01-13T06:04:36.175Z,7.04
2019-01-13T06:05:36.264Z,6.90
2019-01-13T06:06:36.351Z,6.91
2019-01-13T06:07:36.438Z,6.80
2019-01-13T06:08:36.530Z,6.83
2019-01-13T06:09:36.610Z,6.80
2019-01-13T06:10:36.705Z,6.69
2019-01-13T06:11:36.790Z,6.72
2019-01-13T06:12:36.880Z,6.80
2019-01-13T06:13:36.967Z,6.83
2019-01-13T06:14:37.055Z,6.77
2019-01-13T06:15:37.145Z,6.81
2019-01-13T06:16:37.233Z,6.79
2019-01-13T06:17:37.322Z,6.89
2019-01-13T06:18:37.411Z,6.91
2019-01-13T06:19:37.501Z,6.90
2019-01-13T06:20:37.590Z,6.98
2019-01-13T06:21:37.679Z,6.87
2019-01-13T06:22:37.767Z,6.97
2019-01-13T06:23:37.854Z,6.86
2019-01-13T06:24:37.945Z,7.05
2019-01-13T06:25:38.039Z,7.05
2019-01-13T06:26:38.130Z,7.08
2019-01-13T06:27:38.220Z,7.04
2019-01-13T06:28:38.308Z,7.05
2019-01-13T06:29:38.403Z,7.02
2019-01-13T06:30:38.495Z,7.01
2019-01-13T06:31:38.584Z,6.99
2019-01-13T06:32:38.666Z,6.90
2019-01-13T06:33:38.765Z,6.94
2019-01-13T06:34:38.853Z,6.98
2019-01-13T06:35:38.949Z,7.16
2019-01-13T06:36:39.026Z,7.16
2019-01-13T06:37:39.116Z,7.20
2019-01-13T06:38:39.207Z,7.22
2019-01-13T06:39:39.295Z,7.37
2019-01-13T06:40:39.385Z,7.19
2019-01-13T06:41:39.473Z,7.20
2019-01-13T06:42:39.560Z,7.26
2019-01-13T06:43:39.648Z,7.22
2019-01-13T06:44:39.733Z,7.23
2019-01-13T06:45:39.824Z,7.19
2019-01-13T06:46:39.912Z,7.37
2019-01-13T06:47:40.001Z,7.38
2019-01-13T06:48:40.094Z,7.29
2019-01-13T06:49:40.181Z,7.23
2019-01-13T06:50:40.271Z,7.23
2019-01-13T06:51:40.462Z,7.22
2019-01-13T06:52:40.430Z,7.35
2019-01-13T06:53:40.518Z,7.29
2019-01-13T06:54:40.607Z,7.31
2019-01-13T06:55:40.696Z,7.15
2019-01-13T06:56:40.789Z,7.08
2019-01-13T06:57:40.883Z,7.16
2019-01-13T06:58:40.972Z,7.16
2019-01-13T06:59:41.057Z,7.17
2019-01-13T07:00:41.170Z,7.12
2019-01-13T07:01:41.260Z,7.23
2019-01-13T07:02:41.348Z,7.20
2019-01-13T07:03:41.438Z,7.27
2019-01-13T07:04:41.525Z,7.31
2019-01-13T07:05:41.619Z,7.32
2019-01-13T07:06:41.712Z,7.22
2019-01-13T07:07:41.795Z,7.22
2019-01-13T07:08:41.882Z,7.42
2019-01-13T07:09:41.968Z,7.38
2019-01-13T07:10:42.063Z,7.47
2019-01-13T07:11:42.146Z,7.53
2019-01-13T07:12:42.234Z,7.55
2019-01-13T07:13:42.324Z,7.59
2019-01-13T07:14:42.410Z,7.56
2019-01-13T07:15:42.503Z,7.53
2019-01-13T07:16:42.591Z,7.47
2019-01-13T07:17:42.673Z,7.58
2019-01-13T07:18:42.761Z,7.49
2019-01-13T07:19:42.907Z,7.44
2019-01-13T07:20:42.940Z,7.59
2019-01-13T07:21:43.036Z,7.71
2019-01-13T07:22:43.159Z,7.69
2019-01-13T07:23:43.208Z,7.56
2019-01-13T07:24:43.301Z,7.55
2019-01-13T07:25:43.403Z,7.40
2019-01-13T07:26:43.492Z,7.35
2019-01-13T07:27:43.581Z,7.32
2019-01-13T07:28:43.673Z,7.35
2019-01-13T07:29:43.759Z,7.23
2019-01-13T07:30:43.849Z,7.35
2019-01-13T07:31:43.937Z,7.45
2019-01-13T07:32:44.027Z,7.45
2019-01-13T07:33:44.117Z,7.41
2019-01-13T07:34:44.205Z,7.52
2019-01-13T07:35:44.292Z,7.38
2019-01-13T07:36:44.382Z,7.41
2019-01-13T07:37:44.472Z,7.56
2019-01-13T07:38:44.558Z,7.47
2019-01-13T07:39:44.703Z,7.55
2019-01-13T07:40:44.787Z,7.50
2019-01-13T07:41:44.877Z,7.45
2019-01-13T07:42:44.967Z,7.45
2019-01-13T07:43:45.046Z,7.37
2019-01-13T07:44:45.141Z,7.40
2019-01-13T07:45:45.230Z,7.45
2019-01-13T07:46:45.324Z,7.56
2019-01-13T07:47:45.416Z,7.41
2019-01-13T07:48:45.504Z,7.56
2019-01-13T07:49:45.594Z,7.59
2019-01-13T07:50:45.688Z,7.59
2019-01-13T07:51:45.772Z,7.58
2019-01-13T07:52:45.857Z,7.71
2019-01-13T07:53:45.946Z,7.71
2019-01-13T07:54:46.038Z,7.72
2019-01-13T07:55:46.136Z,7.79
2019-01-13T07:56:46.225Z,7.79
2019-01-13T07:57:46.316Z,7.81
2019-01-13T07:58:46.406Z,7.79
2019-01-13T07:59:46.492Z,7.84
2019-01-13T08:00:46.578Z,7.90
2019-01-13T08:01:46.671Z,7.94
2019-01-13T08:02:46.759Z,7.94
2019-01-13T08:03:46.848Z,7.87
2019-01-13T08:04:46.935Z,7.96
2019-01-13T08:05:47.023Z,7.99
2019-01-13T08:06:47.114Z,8.07
2019-01-13T08:07:47.205Z,8.12
2019-01-13T08:08:47.289Z,8.04
2019-01-13T08:09:47.376Z,8.00
2019-01-13T08:10:47.483Z,7.92
2019-01-13T08:11:47.553Z,7.99
2019-01-13T08:12:47.643Z,7.94
2019-01-13T08:13:47.731Z,7.78
2019-01-13T08:14:47.824Z,7.89
2019-01-13T08:15:47.910Z,7.81
2019-01-13T08:16:47.996Z,7.72
2019-01-13T08:19:20.248Z,7.79
2019-01-13T08:20:20.326Z,7.87
2019-01-13T08:21:20.431Z,7.72
2019-01-13T08:22:20.519Z,7.59
2019-01-13T08:23:20.609Z,7.63
2019-01-13T08:24:20.701Z,7.74
2019-01-13T08:25:20.788Z,7.78
2019-01-13T08:26:20.931Z,7.92
2019-01-13T08:27:20.968Z,7.84
2019-01-13T08:28:21.054Z,7.72
2019-01-13T08:29:21.141Z,7.84
2019-01-13T08:30:21.249Z,7.81
2019-01-13T08:31:21.314Z,7.74
2019-01-13T08:32:24.894Z,7.72
2019-01-13T08:33:21.580Z,7.79
2019-01-13T08:34:21.602Z,7.93
2019-01-13T08:35:21.695Z,7.81
2019-01-13T08:36:21.778Z,7.87
2019-01-13T08:37:21.865Z,7.97
2019-01-13T08:38:21.956Z,7.99
2019-01-13T08:39:22.042Z,8.00
2019-01-13T08:40:22.128Z,7.90
2019-01-13T08:41:22.218Z,7.85
2019-01-13T08:42:22.307Z,7.79
2019-01-13T08:43:22.395Z,7.81
2019-01-13T08:44:22.494Z,7.92
2019-01-13T08:45:22.578Z,7.79
2019-01-13T08:46:22.667Z,7.82
2019-01-13T08:47:22.755Z,7.97
2019-01-13T08:48:22.843Z,8.02
2019-01-13T08:49:22.932Z,7.97
2019-01-13T08:50:23.023Z,7.78
2019-01-13T08:51:23.111Z,7.60
2019-01-13T08:52:23.201Z,7.71
2019-01-13T08:53:23.287Z,7.77
2019-01-13T08:54:23.377Z,7.84
2019-01-13T08:55:23.465Z,7.85
2019-01-13T08:56:23.554Z,7.96
2019-01-13T08:57:23.645Z,7.85
2019-01-13T08:58:23.735Z,7.89
2019-01-13T08:59:23.824Z,7.89
2019-01-13T09:00:23.913Z,7.85
2019-01-13T09:01:24.000Z,7.89
2019-01-13T09:02:24.089Z,7.87
2019-01-13T09:03:24.181Z,7.92
2019-01-13T09:04:24.266Z,7.87
2019-01-13T09:05:24.357Z,7.97
2019-01-13T09:06:24.445Z,7.93
2019-01-13T09:07:24.538Z,7.94
2019-01-13T09:08:24.626Z,8.03
2019-01-13T09:09:24.718Z,8.07
2019-01-13T09:10:24.796Z,8.04
2019-01-13T09:11:24.882Z,8.08
2019-01-13T09:12:24.971Z,8.11
2019-01-13T09:13:25.061Z,8.02
2019-01-13T09:14:25.149Z,8.10
2019-01-13T09:15:25.245Z,8.02
2019-01-13T09:16:25.315Z,8.11
2019-01-13T09:17:25.416Z,7.90
2019-01-13T09:18:25.500Z,7.81
2019-01-13T09:19:25.589Z,7.84
2019-01-13T09:20:26.929Z,7.90
2019-01-13T09:21:25.769Z,7.90
2019-01-13T09:22:25.859Z,7.97
2019-01-13T09:23:25.947Z,7.85
2019-01-13T09:24:26.043Z,7.94
2019-01-13T09:25:26.127Z,8.00
2019-01-13T09:26:26.215Z,7.89
2019-01-13T09:27:26.305Z,7.90
2019-01-13T09:28:26.402Z,7.89
2019-01-13T09:29:26.487Z,8.07
2019-01-13T09:30:26.581Z,7.96
2019-01-13T09:31:26.680Z,8.10
2019-01-13T09:32:26.767Z,8.03
2019-01-13T09:33:26.857Z,7.99
2019-01-13T09:34:26.947Z,8.00
2019-01-13T09:35:27.037Z,8.17
2019-01-13T09:36:27.124Z,8.12
2019-01-13T09:37:27.212Z,8.12
2019-01-13T09:38:27.304Z,8.15
2019-01-13T09:39:27.390Z,8.07
2019-01-13T09:40:27.479Z,8.03
2019-01-13T09:41:27.574Z,8.07
2019-01-13T09:42:27.661Z,7.93
2019-01-13T09:43:27.750Z,7.87
2019-01-13T09:44:27.843Z,7.97
2019-01-13T09:45:27.928Z,7.81
2019-01-13T09:46:28.019Z,7.81
2019-01-13T09:47:28.116Z,7.84
2019-01-13T09:48:28.203Z,7.89
2019-01-13T09:49:28.293Z,7.82
2019-01-13T09:50:28.382Z,7.90
2019-01-13T09:51:28.469Z,7.77
2019-01-13T09:52:28.558Z,7.79
2019-01-13T09:53:28.651Z,7.93
2019-01-13T09:54:28.739Z,7.99
2019-01-13T09:55:28.827Z,7.99
2019-01-13T09:56:28.915Z,8.04
2019-01-13T09:57:29.005Z,8.10
2019-01-13T09:58:29.094Z,8.15
2019-01-13T09:59:29.182Z,8.12
2019-01-13T10:00:29.271Z,8.10
2019-01-13T10:01:29.360Z,8.15
2019-01-13T10:02:29.447Z,8.08
2019-01-13T10:03:29.540Z,7.90
2019-01-13T10:04:29.628Z,7.84
2019-01-13T10:05:29.721Z,7.96
2019-01-13T10:06:29.800Z,7.89
2019-01-13T10:07:29.897Z,7.84
2019-01-13T10:08:29.982Z,7.82
2019-01-13T10:09:30.072Z,7.63
2019-01-13T10:10:30.160Z,7.72
2019-01-13T10:11:30.248Z,7.82
2019-01-13T10:12:30.337Z,7.92
2019-01-13T10:13:30.425Z,7.90
2019-01-13T10:14:30.515Z,8.07
2019-01-13T10:15:30.606Z,8.18
2019-01-13T10:16:30.693Z,8.18
2019-01-13T10:17:30.784Z,8.32
2019-01-13T10:18:30.883Z,8.33
2019-01-13T10:19:30.974Z,8.32
2019-01-13T10:20:31.063Z,8.44
2019-01-13T10:21:31.152Z,8.44
2019-01-13T10:22:31.252Z,8.51
2019-01-13T10:23:31.341Z,8.53
2019-01-13T10:24:31.418Z,8.51
2019-01-13T10:25:31.504Z,8.55
2019-01-13T10:26:31.594Z,8.53
2019-01-13T10:27:31.681Z,8.54
2019-01-13T10:28:31.773Z,8.60
2019-01-13T10:29:31.929Z,8.58
2019-01-13T10:30:31.938Z,8.75
2019-01-13T10:31:32.027Z,8.72
2019-01-13T10:32:32.103Z,8.72
2019-01-13T10:33:32.187Z,8.68
2019-01-13T10:34:32.272Z,8.71
2019-01-13T10:35:32.360Z,8.69
2019-01-13T10:36:32.448Z,8.68
2019-01-13T10:37:32.577Z,8.72
2019-01-13T10:38:32.611Z,8.76
2019-01-13T10:39:32.710Z,8.78
2019-01-13T10:40:32.962Z,8.79
2019-01-13T10:41:32.890Z,8.72
2019-01-13T10:42:32.978Z,8.86
2019-01-13T10:43:33.070Z,8.75
2019-01-13T10:44:33.157Z,8.71
2019-01-13T10:45:33.243Z,8.78
2019-01-13T10:46:33.331Z,8.78
2019-01-13T10:47:33.423Z,8.62
2019-01-13T10:48:33.538Z,8.75
2019-01-13T10:49:33.600Z,8.72
2019-01-13T10:50:33.687Z,8.66
2019-01-13T10:51:33.779Z,8.81
2019-01-13T10:52:33.870Z,8.76
2019-01-13T10:53:33.956Z,8.73
2019-01-13T10:54:34.048Z,8.87
2019-01-13T10:55:34.153Z,8.90
2019-01-13T10:56:34.243Z,8.96
2019-01-13T10:57:34.318Z,8.87
2019-01-13T10:58:34.412Z,8.86
2019-01-13T10:59:34.505Z,9.02
2019-01-13T11:00:34.591Z,9.04
2019-01-13T11:01:34.686Z,9.12
2019-01-13T11:02:34.768Z,9.02
2019-01-13T11:03:34.863Z,9.05
2019-01-13T11:04:34.953Z,9.06
2019-01-13T11:05:35.042Z,8.69
2019-01-13T11:06:35.131Z,8.71
2019-01-13T11:07:35.223Z,8.79
2019-01-13T11:08:35.300Z,8.88
2019-01-13T11:09:35.439Z,8.84
2019-01-13T11:10:35.477Z,8.83
2019-01-13T11:11:35.562Z,8.79
2019-01-13T11:12:35.660Z,8.72
2019-01-13T11:13:35.749Z,8.63
2019-01-13T11:14:35.842Z,8.72
2019-01-13T11:15:35.933Z,8.83
2019-01-13T11:16:36.018Z,8.71
2019-01-13T11:17:36.111Z,8.84
2019-01-13T11:18:36.202Z,8.83
2019-01-13T11:19:36.319Z,8.86
2019-01-13T11:20:36.369Z,8.93
2019-01-13T11:21:36.459Z,9.05
2019-01-13T11:22:36.549Z,9.10
2019-01-13T11:23:36.642Z,9.12
2019-01-13T11:24:36.730Z,9.18
2019-01-13T11:25:36.822Z,9.09
2019-01-13T11:26:36.914Z,9.04
2019-01-13T11:27:37.000Z,9.06
2019-01-13T11:28:37.096Z,8.88
2019-01-13T11:29:37.187Z,8.90
2019-01-13T11:30:37.273Z,8.87
2019-01-13T11:31:37.361Z,8.99
2019-01-13T11:32:37.449Z,9.01
2019-01-13T11:33:37.538Z,9.04
2019-01-13T11:34:37.627Z,9.09
2019-01-13T11:35:37.715Z,9.06
2019-01-13T11:36:37.812Z,9.13
2019-01-13T11:37:37.905Z,8.87
2019-01-13T11:38:37.991Z,9.09
2019-01-13T11:39:38.083Z,9.16
2019-01-13T11:40:38.174Z,9.20
2019-01-13T11:41:38.259Z,9.20
2019-01-13T11:42:38.347Z,9.24
2019-01-13T11:43:38.436Z,9.21
2019-01-13T11:44:38.524Z,9.42
2019-01-13T11:45:38.618Z,9.35
2019-01-13T11:46:38.713Z,9.43
2019-01-13T11:47:38.796Z,9.45
2019-01-13T11:48:38.888Z,9.45
2019-01-13T11:49:38.987Z,9.46
2019-01-13T11:50:39.068Z,9.40
2019-01-13T11:51:39.156Z,9.34
2019-01-13T11:52:39.246Z,9.42
2019-01-13T11:53:39.336Z,9.34
2019-01-13T11:54:39.424Z,9.42
2019-01-13T11:55:39.518Z,9.42
2019-01-13T11:56:39.611Z,9.43
2019-01-13T11:57:39.701Z,9.50
2019-01-13T11:58:39.835Z,9.43
2019-01-13T11:59:39.870Z,9.42
2019-01-13T12:00:39.965Z,9.31
2019-01-13T12:01:40.064Z,9.32
2019-01-13T12:02:40.151Z,9.43
2019-01-13T12:03:40.244Z,9.42
2019-01-13T12:04:40.341Z,9.35
2019-01-13T12:05:40.435Z,9.49
2019-01-13T12:06:40.527Z,9.56
2019-01-13T12:07:40.622Z,9.68
2019-01-13T12:08:40.716Z,9.73
2019-01-13T12:09:40.815Z,9.73
2019-01-13T12:10:40.907Z,9.78
2019-01-13T12:11:41.003Z,9.64
2019-01-13T12:12:41.096Z,9.75
2019-01-13T12:13:41.198Z,9.82
2019-01-13T12:14:41.287Z,9.85
2019-01-13T12:15:41.379Z,9.76
2019-01-13T12:16:41.475Z,9.83
2019-01-13T12:17:41.565Z,9.86
2019-01-13T12:18:41.658Z,9.93
2019-01-13T12:19:41.747Z,9.93
2019-01-13T12:20:41.841Z,9.94
2019-01-13T12:21:41.934Z,9.83
2019-01-13T12:22:42.025Z,9.93
2019-01-13T12:23:42.130Z,9.83
2019-01-13T12:24:42.214Z,9.79
2019-01-13T12:25:42.380Z,9.97
2019-01-13T12:26:42.399Z,10.00
2019-01-13T12:27:43.175Z,9.93
2019-01-13T12:28:42.646Z,10.01
2019-01-13T12:29:42.748Z,9.94
2019-01-13T12:30:42.840Z,10.09
2019-01-13T12:31:42.941Z,10.10
2019-01-13T12:32:43.030Z,10.00
2019-01-13T12:33:43.118Z,9.94
2019-01-13T12:34:43.207Z,10.10
2019-01-13T12:35:43.305Z,10.10
2019-01-13T12:36:43.397Z,10.21
2019-01-13T12:37:43.491Z,10.24
2019-01-13T12:38:43.592Z,10.06
2019-01-13T12:39:43.682Z,10.10
2019-01-13T12:40:43.781Z,10.06
2019-01-13T12:44:26.988Z,10.00
2019-01-13T12:45:27.078Z,10.07
2019-01-13T12:46:27.168Z,10.10
2019-01-13T12:47:27.262Z,10.09
2019-01-13T12:48:27.353Z,10.07
2019-01-13T12:49:27.443Z,9.91
2019-01-13T12:50:27.531Z,10.09
2019-01-13T12:51:27.622Z,10.06
2019-01-13T12:52:27.711Z,10.09
2019-01-13T12:53:27.802Z,10.10
2019-01-13T12:54:27.889Z,10.07
2019-01-13T12:55:27.980Z,10.09
2019-01-13T12:56:28.071Z,10.06
2019-01-13T12:57:28.162Z,10.00
2019-01-13T12:58:28.247Z,10.04
2019-01-13T12:59:28.339Z,10.01
2019-01-13T13:00:28.426Z,10.07
2019-01-13T13:01:28.519Z,9.96
2019-01-13T13:02:28.606Z,10.00
2019-01-13T13:03:31.775Z,9.82
2019-01-13T13:04:28.791Z,9.93
2019-01-13T13:05:28.884Z,9.99
2019-01-13T13:06:28.972Z,9.99
2019-01-13T13:07:29.063Z,9.94
2019-01-13T13:08:29.154Z,10.06
2019-01-13T13:09:29.246Z,10.07
2019-01-13T13:10:29.333Z,10.19
2019-01-13T13:11:29.423Z,10.01
2019-01-13T13:12:29.514Z,9.91
2019-01-13T13:13:29.605Z,9.97
2019-01-13T13:14:29.691Z,10.09
2019-01-13T13:15:29.781Z,10.09
2019-01-13T13:16:29.874Z,10.03
2019-01-13T13:17:29.961Z,10.07
2019-01-13T13:18:30.040Z,10.17
2019-01-13T13:19:30.128Z,10.15
2019-01-13T13:20:30.222Z,10.18
2019-01-13T13:21:30.310Z,10.15
2019-01-13T13:22:30.402Z,10.12